createdAt,value
2022-10-23T00:00:18.179Z,95.02
2022-10-23T00:01:21.635Z,94.97
2022-10-23T00:02:24.733Z,95.00
2022-10-23T00:04:00.322Z,95.04
2022-10-23T00:05:03.218Z,95.05
2022-10-23T00:06:06.045Z,95.08
2022-10-23T00:07:40.992Z,95.05
2022-10-23T00:08:43.722Z,95.13
2022-10-23T00:09:46.429Z,95.11
2022-10-23T00:11:21.058Z,95.26
2022-10-23T00:12:23.924Z,95.26
2022-10-23T00:13:27.576Z,95.49
2022-10-23T00:15:02.137Z,95.40
2022-10-23T00:16:05.193Z,95.48
2022-10-23T00:17:08.137Z,95.40
2022-10-23T00:18:42.865Z,95.38
2022-10-23T00:19:46.547Z,95.46
2022-10-23T00:20:49.611Z,95.45
2022-10-23T00:22:24.394Z,95.47
2022-10-23T00:23:27.414Z,95.47
2022-10-23T00:24:30.497Z,95.47
2022-10-23T00:26:05.114Z,95.48
2022-10-23T00:27:07.829Z,95.42
2022-10-23T00:28:10.818Z,95.38
2022-10-23T00:29:45.614Z,95.41
2022-10-23T00:30:48.435Z,95.38
2022-10-23T00:31:51.380Z,95.43
2022-10-23T00:33:25.957Z,95.41
2022-10-23T00:34:28.963Z,95.50
2022-10-23T00:35:32.094Z,95.60
2022-10-23T00:37:06.873Z,95.52
2022-10-23T00:38:09.811Z,95.58
2022-10-23T00:39:12.610Z,95.49
2022-10-23T00:40:47.582Z,95.50
2022-10-23T00:41:50.471Z,95.56
2022-10-23T00:42:53.519Z,95.57
2022-10-23T00:44:28.089Z,95.53
2022-10-23T00:45:30.777Z,95.52
2022-10-23T00:46:33.424Z,95.50
2022-10-23T00:48:07.850Z,95.45
2022-10-23T00:50:15.400Z,95.41
2022-10-23T00:51:50.010Z,95.32
2022-10-23T00:52:52.701Z,95.36
2022-10-23T00:54:24.848Z,95.23
2022-10-23T00:55:59.926Z,95.26
2022-10-23T00:57:02.742Z,95.26
2022-10-23T00:58:05.988Z,95.22
2022-10-23T00:59:40.628Z,95.27
2022-10-23T01:00:18.056Z,95.27
2022-10-23T01:01:21.185Z,95.25
2022-10-23T01:02:25.922Z,95.29
2022-10-23T01:04:01.500Z,95.27
2022-10-23T01:05:04.347Z,95.27
2022-10-23T01:06:07.249Z,95.26
2022-10-23T01:07:42.023Z,95.24
2022-10-23T01:08:45.171Z,95.27
2022-10-23T01:09:48.171Z,95.25
2022-10-23T01:11:22.761Z,95.25
2022-10-23T01:12:25.595Z,95.28
2022-10-23T01:13:28.627Z,95.35
2022-10-23T01:15:03.421Z,95.38
2022-10-23T01:16:06.091Z,95.35
2022-10-23T01:17:08.860Z,95.37
2022-10-23T01:18:43.519Z,95.35
2022-10-23T01:19:46.237Z,95.30
2022-10-23T01:20:48.944Z,95.33
2022-10-23T01:23:27.132Z,95.31
2022-10-23T01:24:29.872Z,95.31
2022-10-23T01:26:04.677Z,95.37
2022-10-23T01:27:07.420Z,95.42
2022-10-23T01:28:10.262Z,95.40
2022-10-23T01:29:44.850Z,95.51
2022-10-23T01:30:47.544Z,95.52
2022-10-23T01:31:50.323Z,95.55
2022-10-23T01:33:25.999Z,95.48
2022-10-23T01:34:28.805Z,95.52
2022-10-23T01:35:31.737Z,95.51
2022-10-23T01:37:06.551Z,95.53
2022-10-23T01:38:09.282Z,95.51
2022-10-23T01:39:12.140Z,95.62
2022-10-23T01:40:46.925Z,95.62
2022-10-23T01:41:49.747Z,95.64
2022-10-23T01:42:52.619Z,95.72
2022-10-23T01:44:27.177Z,95.77
2022-10-23T01:45:29.818Z,95.73
2022-10-23T01:46:32.715Z,96.08
2022-10-23T01:48:07.315Z,95.97
2022-10-23T01:49:10.011Z,95.95
2022-10-23T01:50:12.945Z,96.17
2022-10-23T01:51:47.628Z,96.33
2022-10-23T01:52:50.406Z,96.34
2022-10-23T01:53:53.102Z,96.24
2022-10-23T01:55:27.963Z,96.20
2022-10-23T01:56:31.233Z,96.14
2022-10-23T01:57:34.032Z,96.14
2022-10-23T01:59:09.066Z,96.09
2022-10-23T02:00:17.449Z,96.06
2022-10-23T02:01:20.663Z,96.08
2022-10-23T02:02:24.823Z,96.07
2022-10-23T02:05:02.294Z,95.92
2022-10-23T02:06:05.171Z,95.86
2022-10-23T02:07:40.458Z,95.87
2022-10-23T02:08:43.571Z,95.85
2022-10-23T02:09:46.344Z,95.75
2022-10-23T02:11:21.210Z,95.68
2022-10-23T02:12:24.223Z,95.62
2022-10-23T02:13:26.957Z,95.59
2022-10-23T02:15:01.848Z,95.58
2022-10-23T02:16:04.766Z,95.57
2022-10-23T02:17:07.594Z,95.52
2022-10-23T02:18:42.490Z,95.48
2022-10-23T02:19:45.239Z,95.77
2022-10-23T02:20:48.098Z,95.64
2022-10-23T02:22:23.058Z,95.53
2022-10-23T02:23:26.191Z,95.57
2022-10-23T02:24:32.877Z,95.51
2022-10-23T02:26:07.566Z,95.53
2022-10-23T02:27:10.496Z,95.58
2022-10-23T02:28:13.327Z,95.57
2022-10-23T02:29:48.081Z,95.54
2022-10-23T02:30:50.892Z,95.57
2022-10-23T02:31:53.649Z,95.61
2022-10-23T02:33:28.929Z,95.57
2022-10-23T02:34:31.771Z,95.59
2022-10-23T02:35:34.499Z,95.57
2022-10-23T02:37:09.205Z,95.50
2022-10-23T02:38:13.084Z,95.42
2022-10-23T02:39:15.918Z,95.47
2022-10-23T02:40:50.437Z,95.48
2022-10-23T02:41:53.162Z,95.45
2022-10-23T02:42:56.009Z,95.45
2022-10-23T02:44:30.761Z,95.49
2022-10-23T02:45:33.841Z,95.45
2022-10-23T02:46:36.595Z,95.48
2022-10-23T02:48:11.365Z,95.55
2022-10-23T02:49:14.162Z,95.63
2022-10-23T02:50:17.051Z,95.65
2022-10-23T02:51:51.722Z,95.66
2022-10-23T02:52:54.567Z,95.66
2022-10-23T02:55:32.121Z,95.67
2022-10-23T02:56:37.898Z,95.78
2022-10-23T02:57:41.985Z,95.85
2022-10-23T02:59:17.042Z,95.79
2022-10-23T03:00:18.307Z,95.73
2022-10-23T03:01:21.684Z,95.74
2022-10-23T03:02:26.018Z,95.72
2022-10-23T03:04:00.859Z,95.70
2022-10-23T03:05:03.600Z,95.70
2022-10-23T03:06:06.283Z,95.70
2022-10-23T03:07:41.394Z,95.71
2022-10-23T03:08:44.237Z,95.68
2022-10-23T03:09:46.918Z,95.62
2022-10-23T03:11:21.709Z,95.68
2022-10-23T03:12:24.436Z,95.61
2022-10-23T03:13:27.835Z,95.68
2022-10-23T03:15:02.589Z,95.69
2022-10-23T03:16:05.403Z,95.73
2022-10-23T03:17:08.330Z,95.87
2022-10-23T03:18:42.899Z,95.90
2022-10-23T03:19:45.798Z,95.86
2022-10-23T03:20:48.622Z,96.02
2022-10-23T03:22:23.587Z,96.02
2022-10-23T03:23:26.992Z,96.21
2022-10-23T03:24:29.949Z,96.19
2022-10-23T03:26:04.705Z,96.42
2022-10-23T03:27:07.548Z,96.37
2022-10-23T03:28:10.871Z,96.36
2022-10-23T03:29:45.473Z,96.58
2022-10-23T03:30:48.265Z,96.58
2022-10-23T03:31:51.163Z,96.48
2022-10-23T03:33:26.602Z,96.45
2022-10-23T03:34:29.511Z,96.39
2022-10-23T03:35:32.463Z,96.30
2022-10-23T03:37:07.504Z,96.28
2022-10-23T03:38:10.269Z,96.24
2022-10-23T03:39:13.252Z,96.24
2022-10-23T03:40:48.285Z,96.23
2022-10-23T03:41:51.120Z,96.17
2022-10-23T03:42:54.219Z,96.12
2022-10-23T03:44:28.945Z,96.16
2022-10-23T03:45:31.759Z,96.15
2022-10-23T03:46:34.411Z,96.20
2022-10-23T03:48:09.031Z,96.23
2022-10-23T03:49:11.702Z,96.35
2022-10-23T03:50:14.325Z,96.32
2022-10-23T03:51:48.980Z,96.39
2022-10-23T03:52:51.988Z,96.33
2022-10-23T03:53:54.973Z,96.33
2022-10-23T03:55:29.529Z,96.40
2022-10-23T03:56:32.408Z,96.33
2022-10-23T03:57:39.710Z,96.50
2022-10-23T03:59:14.375Z,96.47
2022-10-23T04:00:17.583Z,96.48
2022-10-23T04:01:20.702Z,96.47
2022-10-23T04:02:25.025Z,96.41
2022-10-23T04:04:00.874Z,96.47
2022-10-23T04:05:46.529Z,96.34
2022-10-23T04:06:50.058Z,96.47
2022-10-23T04:07:53.707Z,96.51
2022-10-23T04:09:32.707Z,96.46
2022-10-23T04:10:36.003Z,96.45
2022-10-23T04:11:38.975Z,96.58
2022-10-23T04:13:13.905Z,96.58
2022-10-23T04:14:16.919Z,96.58
2022-10-23T04:15:19.852Z,96.52
2022-10-23T04:16:54.711Z,96.41
2022-10-23T04:17:57.597Z,96.42
2022-10-23T04:19:00.573Z,96.39
2022-10-23T04:20:35.087Z,96.30
2022-10-23T04:21:38.083Z,96.26
2022-10-23T04:22:41.324Z,96.31
2022-10-23T04:24:16.519Z,96.26
2022-10-23T04:25:19.219Z,96.21
2022-10-23T04:26:22.518Z,96.14
2022-10-23T04:27:57.371Z,96.18
2022-10-23T04:29:00.341Z,96.11
2022-10-23T04:30:04.877Z,96.04
2022-10-23T04:31:39.710Z,96.00
2022-10-23T04:32:42.557Z,96.13
2022-10-23T04:33:45.335Z,96.13
2022-10-23T04:35:20.188Z,96.12
2022-10-23T04:36:23.184Z,96.38
2022-10-23T04:37:26.344Z,96.51
2022-10-23T04:39:01.536Z,96.64
2022-10-23T04:40:04.396Z,96.49
2022-10-23T04:41:07.276Z,96.69
2022-10-23T04:42:42.705Z,96.52
2022-10-23T04:43:45.848Z,96.37
2022-10-23T04:44:48.624Z,96.31
2022-10-23T04:46:23.321Z,96.18
2022-10-23T04:47:26.103Z,96.12
2022-10-23T04:48:34.104Z,96.07
2022-10-23T04:50:08.980Z,95.84
2022-10-23T04:51:11.897Z,95.85
2022-10-23T04:52:15.066Z,95.80
2022-10-23T04:53:49.656Z,95.81
2022-10-23T04:54:52.477Z,95.87
2022-10-23T04:55:55.573Z,95.89
2022-10-23T04:57:30.088Z,95.95
2022-10-23T04:58:32.923Z,96.06
2022-10-23T04:59:36.069Z,96.30
2022-10-23T05:00:18.108Z,96.30
2022-10-23T05:01:21.519Z,96.28
2022-10-23T05:02:25.305Z,96.32
2022-10-23T05:04:00.580Z,96.40
2022-10-23T05:05:03.395Z,96.38
2022-10-23T05:06:06.141Z,96.49
2022-10-23T05:07:41.030Z,96.42
2022-10-23T05:08:44.325Z,96.43
2022-10-23T05:09:47.170Z,96.46
2022-10-23T05:11:21.785Z,96.60
2022-10-23T05:12:24.892Z,96.59
2022-10-23T05:13:27.885Z,96.62
2022-10-23T05:15:08.805Z,96.56
2022-10-23T05:16:11.699Z,96.60
2022-10-23T05:17:14.777Z,96.60
2022-10-23T05:18:49.413Z,96.64
2022-10-23T05:19:52.386Z,96.59
2022-10-23T05:20:55.670Z,96.53
2022-10-23T05:22:30.610Z,96.62
2022-10-23T05:23:33.501Z,96.62
2022-10-23T05:24:36.706Z,96.72
2022-10-23T05:26:15.077Z,96.69
2022-10-23T05:27:17.821Z,96.79
2022-10-23T05:28:21.147Z,96.76
2022-10-23T05:29:55.858Z,96.91
2022-10-23T05:30:58.897Z,96.83
2022-10-23T05:32:01.781Z,96.96
2022-10-23T05:33:37.200Z,96.88
2022-10-23T05:34:40.099Z,96.79
2022-10-23T05:35:42.948Z,96.78
2022-10-23T05:37:17.381Z,96.78
2022-10-23T05:38:20.364Z,96.74
2022-10-23T05:39:23.015Z,96.79
2022-10-23T05:40:57.664Z,96.82
2022-10-23T05:42:00.650Z,96.77
2022-10-23T05:43:03.764Z,96.76
2022-10-23T05:44:38.547Z,96.83
2022-10-23T05:45:41.264Z,96.90
2022-10-23T05:46:44.173Z,96.95
2022-10-23T05:48:35.797Z,96.77
2022-10-23T05:49:40.062Z,96.78
2022-10-23T05:50:42.860Z,96.82
2022-10-23T05:52:17.665Z,96.82
2022-10-23T05:53:20.932Z,96.82
2022-10-23T05:54:28.439Z,96.98
2022-10-23T05:56:03.202Z,96.96
2022-10-23T05:57:06.112Z,97.00
2022-10-23T05:58:09.288Z,97.05
2022-10-23T05:59:43.870Z,97.14
2022-10-23T06:00:17.740Z,97.14
2022-10-23T06:01:20.820Z,97.03
2022-10-23T06:02:24.802Z,97.04
2022-10-23T06:03:59.961Z,97.04
2022-10-23T06:05:02.999Z,96.98
2022-10-23T06:06:06.170Z,96.95
2022-10-23T06:07:41.860Z,96.93
2022-10-23T06:08:44.843Z,96.87
2022-10-23T06:09:47.751Z,96.89
2022-10-23T06:11:22.452Z,96.93
2022-10-23T06:12:25.411Z,96.97
2022-10-23T06:13:28.187Z,96.98
2022-10-23T06:15:03.062Z,96.93
2022-10-23T06:16:09.617Z,96.96
2022-10-23T06:17:13.077Z,97.03
2022-10-23T06:18:47.857Z,97.14
2022-10-23T06:19:50.698Z,97.09
2022-10-23T06:20:53.647Z,97.08
2022-10-23T06:22:28.372Z,97.13
2022-10-23T06:23:31.936Z,97.10
2022-10-23T06:24:35.060Z,97.07
2022-10-23T06:26:09.685Z,97.00
2022-10-23T06:27:12.356Z,96.98
2022-10-23T06:28:17.128Z,96.98
2022-10-23T06:29:54.642Z,97.06
2022-10-23T06:30:57.478Z,97.10
2022-10-23T06:32:00.242Z,97.17
2022-10-23T06:33:35.433Z,97.16
2022-10-23T06:34:38.154Z,97.14
2022-10-23T06:35:41.049Z,97.16
2022-10-23T06:37:15.666Z,97.15
2022-10-23T06:38:18.620Z,97.14
2022-10-23T06:39:21.514Z,97.12
2022-10-23T06:41:01.382Z,97.08
2022-10-23T06:42:04.571Z,97.00
2022-10-23T06:43:07.624Z,96.99
2022-10-23T06:44:42.573Z,96.91
2022-10-23T06:45:52.515Z,96.96
2022-10-23T06:46:55.356Z,96.99
2022-10-23T06:48:30.996Z,96.89
2022-10-23T06:49:34.278Z,96.89
2022-10-23T06:50:37.360Z,96.90
2022-10-23T06:52:45.433Z,96.86
2022-10-23T06:53:49.167Z,96.92
2022-10-23T06:54:51.886Z,96.89
2022-10-23T06:56:30.556Z,96.83
2022-10-23T06:57:33.352Z,96.82
2022-10-23T06:58:37.120Z,96.77
2022-10-23T07:00:18.417Z,96.74
2022-10-23T07:01:22.376Z,96.76
2022-10-23T07:02:27.084Z,96.71
2022-10-23T07:04:02.506Z,96.64
2022-10-23T07:05:07.719Z,96.64
2022-10-23T07:06:13.147Z,96.63
2022-10-23T07:07:48.086Z,96.63
2022-10-23T07:08:51.024Z,96.59
2022-10-23T07:09:54.024Z,96.54
2022-10-23T07:11:29.030Z,96.58
2022-10-23T07:12:31.869Z,96.45
2022-10-23T07:13:35.402Z,96.53
2022-10-23T07:15:10.094Z,96.50
2022-10-23T07:16:13.133Z,96.50
2022-10-23T07:17:16.060Z,96.39
2022-10-23T07:18:50.804Z,96.45
2022-10-23T07:19:53.621Z,96.39
2022-10-23T07:20:56.456Z,96.37
2022-10-23T07:22:31.127Z,96.29
2022-10-23T07:23:34.322Z,96.31
2022-10-23T07:24:37.215Z,96.37
2022-10-23T07:26:11.810Z,96.28
2022-10-23T07:27:14.598Z,96.24
2022-10-23T07:28:17.470Z,96.18
2022-10-23T07:29:52.310Z,96.21
2022-10-23T07:30:55.313Z,96.21
2022-10-23T07:31:58.049Z,96.11
2022-10-23T07:33:32.708Z,96.11
2022-10-23T07:34:35.765Z,96.07
2022-10-23T07:35:44.081Z,96.11
2022-10-23T07:37:19.271Z,96.00
2022-10-23T07:38:22.725Z,96.00
2022-10-23T07:39:25.647Z,96.02
2022-10-23T07:41:00.275Z,95.99
2022-10-23T07:42:08.876Z,95.97
2022-10-23T07:43:11.824Z,95.91
2022-10-23T07:44:46.754Z,95.96
2022-10-23T07:45:49.577Z,96.04
2022-10-23T07:46:52.502Z,96.00
2022-10-23T07:48:27.864Z,95.97
2022-10-23T07:49:30.540Z,95.94
2022-10-23T07:50:33.554Z,96.00
2022-10-23T07:52:09.219Z,95.88
2022-10-23T07:53:16.553Z,95.84
2022-10-23T07:54:19.492Z,95.84
2022-10-23T07:55:54.310Z,95.85
2022-10-23T07:56:57.220Z,95.81
2022-10-23T07:58:00.147Z,95.79
2022-10-23T07:59:37.891Z,95.81
2022-10-23T08:00:17.980Z,95.74
2022-10-23T08:01:22.091Z,95.73
2022-10-23T08:02:25.832Z,95.78
2022-10-23T08:04:01.377Z,95.71
2022-10-23T08:05:04.312Z,95.66
2022-10-23T08:06:07.340Z,95.62
2022-10-23T08:07:41.993Z,95.66
2022-10-23T08:09:52.591Z,95.59
2022-10-23T08:11:27.276Z,95.57
2022-10-23T08:12:30.408Z,95.60
2022-10-23T08:13:33.955Z,95.58
2022-10-23T08:15:08.607Z,95.62
2022-10-23T08:16:11.531Z,95.61
2022-10-23T08:17:14.314Z,95.59
2022-10-23T08:18:52.299Z,95.59
2022-10-23T08:19:55.207Z,95.50
2022-10-23T08:20:58.217Z,95.48
2022-10-23T08:22:32.727Z,95.46
2022-10-23T08:23:35.867Z,95.38
2022-10-23T08:24:38.679Z,95.37
2022-10-23T08:26:18.402Z,95.28
2022-10-23T08:27:21.288Z,95.26
2022-10-23T08:28:24.924Z,95.27
2022-10-23T08:29:59.617Z,95.21
2022-10-23T08:31:02.512Z,95.16
2022-10-23T08:32:05.394Z,95.24
2022-10-23T08:33:40.326Z,95.16
2022-10-23T08:34:43.349Z,95.16
2022-10-23T08:35:46.040Z,95.16
2022-10-23T08:37:20.693Z,95.05
2022-10-23T08:38:23.987Z,95.05
2022-10-23T08:39:27.032Z,95.06
2022-10-23T08:41:05.662Z,94.98
2022-10-23T08:42:08.440Z,94.94
2022-10-23T08:43:11.224Z,94.93
2022-10-23T08:44:46.356Z,94.92
2022-10-23T08:45:49.335Z,94.84
2022-10-23T08:46:55.367Z,94.73
2022-10-23T08:48:30.132Z,94.73
2022-10-23T08:49:33.074Z,94.75
2022-10-23T08:50:35.901Z,94.59
2022-10-23T08:52:13.307Z,94.57
2022-10-23T08:53:17.116Z,94.57
2022-10-23T08:54:20.109Z,94.52
2022-10-23T08:55:54.703Z,94.43
2022-10-23T08:56:57.600Z,94.42
2022-10-23T08:58:00.543Z,94.42
2022-10-23T08:59:35.390Z,94.20
2022-10-23T09:00:17.515Z,94.20
2022-10-23T09:01:20.877Z,94.21
2022-10-23T09:02:25.072Z,94.20
2022-10-23T09:04:00.475Z,94.06
2022-10-23T09:05:03.528Z,94.01
2022-10-23T09:06:06.212Z,94.07
2022-10-23T09:07:41.430Z,93.68
2022-10-23T09:08:44.593Z,93.69
2022-10-23T09:09:47.556Z,93.71
2022-10-23T09:11:22.203Z,93.93
2022-10-23T09:12:24.919Z,93.97
2022-10-23T09:13:27.819Z,93.85
2022-10-23T09:15:02.634Z,93.77
2022-10-23T09:16:05.492Z,93.70
2022-10-23T09:17:08.400Z,93.69
2022-10-23T09:18:44.027Z,93.57
2022-10-23T09:19:52.494Z,93.61
2022-10-23T09:20:55.274Z,93.56
2022-10-23T09:22:30.172Z,93.39
2022-10-23T09:23:33.248Z,93.34
2022-10-23T09:24:36.376Z,93.36
2022-10-23T09:26:17.706Z,93.48
2022-10-23T09:27:20.832Z,93.37
2022-10-23T09:28:24.174Z,93.36
2022-10-23T09:29:59.164Z,93.27
2022-10-23T09:31:02.198Z,93.16
2022-10-23T09:32:04.915Z,93.23
2022-10-23T09:33:39.935Z,93.06
2022-10-23T09:34:42.682Z,93.11
2022-10-23T09:35:45.506Z,93.12
2022-10-23T09:37:21.398Z,92.92
2022-10-23T09:38:25.231Z,92.98
2022-10-23T09:39:28.023Z,93.08
2022-10-23T09:41:03.198Z,92.78
2022-10-23T09:42:06.200Z,92.91
2022-10-23T09:43:08.891Z,92.94
2022-10-23T09:44:43.673Z,92.77
2022-10-23T09:45:46.324Z,92.78
2022-10-23T09:48:24.853Z,92.61
2022-10-23T09:49:28.060Z,92.53
2022-10-23T09:50:30.970Z,92.53
2022-10-23T09:52:05.685Z,92.55
2022-10-23T09:53:08.639Z,92.45
2022-10-23T09:54:11.382Z,92.27
2022-10-23T09:55:46.163Z,92.23
2022-10-23T09:56:49.192Z,92.27
2022-10-23T09:57:52.996Z,92.06
2022-10-23T09:59:27.604Z,91.69
2022-10-23T10:00:18.226Z,91.85
2022-10-23T10:01:21.707Z,91.75
2022-10-23T10:02:25.941Z,91.69
2022-10-23T10:04:00.653Z,91.77
2022-10-23T10:05:03.440Z,91.57
2022-10-23T10:06:06.296Z,91.58
2022-10-23T10:07:42.802Z,91.50
2022-10-23T10:08:46.021Z,91.38
2022-10-23T10:09:49.083Z,91.35
2022-10-23T10:11:23.848Z,91.27
2022-10-23T10:12:26.800Z,90.95
2022-10-23T10:13:29.839Z,90.94
2022-10-23T10:15:04.605Z,90.95
2022-10-23T10:16:07.422Z,90.96
2022-10-23T10:17:10.443Z,90.84
2022-10-23T10:18:45.151Z,90.80
2022-10-23T10:19:48.229Z,90.88
2022-10-23T10:20:57.021Z,90.83
2022-10-23T10:22:31.958Z,90.66
2022-10-23T10:23:34.955Z,90.73
2022-10-23T10:24:37.801Z,90.81
2022-10-23T10:26:12.494Z,90.80
2022-10-23T10:27:15.589Z,90.80
2022-10-23T10:28:18.441Z,91.14
2022-10-23T10:29:53.320Z,90.99
2022-10-23T10:30:56.343Z,90.79
2022-10-23T10:31:59.130Z,90.79
2022-10-23T10:33:34.021Z,90.70
2022-10-23T10:34:37.173Z,90.30
2022-10-23T10:35:40.132Z,90.37
2022-10-23T10:37:15.362Z,90.57
2022-10-23T10:38:18.387Z,90.54
2022-10-23T10:39:21.356Z,90.37
2022-10-23T10:40:56.522Z,90.38
2022-10-23T10:41:59.150Z,90.43
2022-10-23T10:43:02.045Z,90.59
2022-10-23T10:44:36.972Z,90.42
2022-10-23T10:45:39.596Z,90.32
2022-10-23T10:46:42.757Z,90.30
2022-10-23T10:48:17.634Z,90.25
2022-10-23T10:49:20.633Z,90.13
2022-10-23T10:50:23.511Z,90.13
2022-10-23T10:51:58.247Z,90.05
2022-10-23T10:53:00.957Z,89.97
2022-10-23T10:54:04.058Z,89.84
2022-10-23T10:55:38.585Z,89.84
2022-10-23T10:56:41.741Z,89.88
2022-10-23T10:57:44.656Z,89.72
2022-10-23T10:59:23.444Z,89.60
2022-10-23T11:00:17.948Z,89.45
2022-10-23T11:01:21.348Z,89.56
2022-10-23T11:02:25.945Z,89.47
2022-10-23T11:04:00.778Z,89.45
2022-10-23T11:05:03.556Z,89.43
2022-10-23T11:06:06.283Z,89.36
2022-10-23T11:07:41.490Z,89.32
2022-10-23T11:09:19.671Z,89.18
2022-10-23T11:10:23.361Z,89.02
2022-10-23T11:11:58.195Z,88.93
2022-10-23T11:13:01.054Z,89.01
2022-10-23T11:14:03.888Z,88.81
2022-10-23T11:15:38.583Z,88.72
2022-10-23T11:16:41.780Z,88.71
2022-10-23T11:17:45.021Z,88.78
2022-10-23T11:19:20.087Z,88.62
2022-10-23T11:20:23.162Z,88.51
2022-10-23T11:21:25.926Z,88.31
2022-10-23T11:23:00.627Z,88.16
2022-10-23T11:24:03.698Z,88.45
2022-10-23T11:25:07.662Z,88.39
2022-10-23T11:26:42.393Z,88.28
2022-10-23T11:27:45.586Z,88.46
2022-10-23T11:28:56.859Z,88.22
2022-10-23T11:30:31.679Z,87.85
2022-10-23T11:31:34.717Z,87.80
2022-10-23T11:32:40.312Z,87.93
2022-10-23T11:34:14.944Z,88.10
2022-10-23T11:35:17.857Z,87.88
2022-10-23T11:36:20.763Z,87.82
2022-10-23T11:37:55.618Z,87.54
2022-10-23T11:38:58.369Z,87.66
2022-10-23T11:40:01.297Z,87.60
2022-10-23T11:41:37.351Z,87.75
2022-10-23T11:42:40.358Z,87.28
2022-10-23T11:43:44.142Z,87.33
2022-10-23T11:45:18.851Z,86.95
2022-10-23T11:46:21.776Z,86.95
2022-10-23T11:47:24.543Z,87.14
2022-10-23T11:49:04.400Z,87.12
2022-10-23T11:50:07.346Z,87.09
2022-10-23T11:51:10.993Z,86.89
2022-10-23T11:53:09.193Z,86.74
2022-10-23T11:54:16.970Z,86.29
2022-10-23T11:55:19.798Z,86.34
2022-10-23T11:56:54.620Z,86.72
2022-10-23T11:58:02.300Z,86.62
2022-10-23T11:59:05.078Z,86.54
2022-10-23T12:00:17.510Z,86.31
2022-10-23T12:01:20.331Z,86.35
2022-10-23T12:02:24.071Z,86.47
2022-10-23T12:04:00.388Z,86.54
2022-10-23T12:05:03.360Z,85.96
2022-10-23T12:06:06.238Z,85.99
2022-10-23T12:07:41.800Z,85.90
2022-10-23T12:08:45.114Z,85.85
2022-10-23T12:09:48.299Z,86.00
2022-10-23T12:11:26.766Z,85.76
2022-10-23T12:12:30.756Z,85.83
2022-10-23T12:13:33.652Z,85.84
2022-10-23T12:15:08.716Z,85.90
2022-10-23T12:16:11.693Z,85.69
2022-10-23T12:17:14.478Z,85.43
2022-10-23T12:18:49.562Z,85.30
2022-10-23T12:19:52.534Z,85.33
2022-10-23T12:20:55.498Z,85.35
2022-10-23T12:22:30.698Z,85.07
2022-10-23T12:23:33.959Z,85.15
2022-10-23T12:24:42.073Z,85.12
2022-10-23T12:26:16.579Z,85.28
2022-10-23T12:27:19.558Z,85.25
2022-10-23T12:28:22.810Z,85.12
2022-10-23T12:29:57.478Z,84.98
2022-10-23T12:31:00.556Z,85.23
2022-10-23T12:32:03.462Z,84.92
2022-10-23T12:33:38.322Z,84.86
2022-10-23T12:34:41.186Z,84.65
2022-10-23T12:35:44.285Z,84.53
2022-10-23T12:37:19.002Z,84.45
2022-10-23T12:38:21.887Z,84.29
2022-10-23T12:39:31.324Z,84.40
2022-10-23T12:41:06.155Z,84.48
2022-10-23T12:42:09.196Z,84.73
2022-10-23T12:43:12.164Z,84.94
2022-10-23T12:44:47.064Z,84.70
2022-10-23T12:45:50.012Z,84.28
2022-10-23T12:46:58.270Z,84.29
2022-10-23T12:48:33.348Z,83.99
2022-10-23T12:49:36.366Z,84.06
2022-10-23T12:50:39.295Z,84.39
2022-10-23T12:52:14.099Z,83.52
2022-10-23T12:53:16.930Z,83.81
2022-10-23T12:54:20.025Z,83.76
2022-10-23T12:55:54.779Z,83.64
2022-10-23T12:56:57.737Z,83.32
2022-10-23T12:58:00.581Z,83.47
2022-10-23T12:59:35.363Z,83.51
2022-10-23T13:00:18.204Z,83.14
2022-10-23T13:01:21.530Z,83.07
2022-10-23T13:02:33.940Z,83.28
2022-10-23T13:04:09.026Z,83.25
2022-10-23T13:05:12.222Z,83.38
2022-10-23T13:06:15.468Z,83.41
2022-10-23T13:07:50.992Z,83.25
2022-10-23T13:08:54.169Z,83.35
2022-10-23T13:09:57.328Z,83.52
2022-10-23T13:11:32.133Z,83.60
2022-10-23T13:12:35.323Z,83.67
2022-10-23T13:13:38.517Z,83.58
2022-10-23T13:15:13.221Z,83.63
2022-10-23T13:16:16.239Z,83.83
2022-10-23T13:17:19.205Z,83.76
2022-10-23T13:18:54.658Z,83.72
2022-10-23T13:19:57.634Z,84.20
2022-10-23T13:22:35.445Z,83.89
2022-10-23T13:23:45.376Z,83.92
2022-10-23T13:24:48.045Z,83.56
2022-10-23T13:26:22.949Z,83.43
2022-10-23T13:27:26.024Z,83.17
2022-10-23T13:28:29.455Z,83.32
2022-10-23T13:30:06.139Z,83.57
2022-10-23T13:31:12.958Z,84.16
2022-10-23T13:32:16.042Z,84.34
2022-10-23T13:33:50.643Z,82.97
2022-10-23T13:35:21.374Z,83.06
2022-10-23T13:36:26.529Z,82.95
2022-10-23T13:38:05.774Z,82.95
2022-10-23T13:39:08.840Z,83.20
2022-10-23T13:40:12.178Z,83.02
2022-10-23T13:41:46.911Z,83.01
2022-10-23T13:42:50.323Z,82.93
2022-10-23T13:43:53.169Z,82.95
2022-10-23T13:45:28.068Z,82.71
2022-10-23T13:46:30.973Z,82.79
2022-10-23T13:47:34.033Z,82.77
2022-10-23T13:49:09.315Z,82.91
2022-10-23T13:50:12.325Z,82.85
2022-10-23T13:51:15.421Z,82.56
2022-10-23T13:52:55.128Z,82.63
2022-10-23T13:53:57.963Z,83.05
2022-10-23T13:55:00.988Z,83.11
2022-10-23T13:56:39.821Z,83.01
2022-10-23T13:57:42.834Z,82.85
2022-10-23T13:58:45.883Z,82.85
2022-10-23T14:00:17.829Z,83.19
2022-10-23T14:01:21.133Z,82.93
2022-10-23T14:02:25.440Z,83.25
2022-10-23T14:04:00.936Z,83.27
2022-10-23T14:05:03.868Z,83.02
2022-10-23T14:06:06.974Z,83.02
2022-10-23T14:07:42.535Z,83.15
2022-10-23T14:08:45.545Z,83.14
2022-10-23T14:09:50.527Z,83.10
2022-10-23T14:11:26.079Z,83.27
2022-10-23T14:12:29.003Z,83.23
2022-10-23T14:13:32.803Z,83.25
2022-10-23T14:15:07.677Z,83.16
2022-10-23T14:16:10.448Z,83.31
2022-10-23T14:17:13.310Z,83.85
2022-10-23T14:18:54.574Z,83.48
2022-10-23T14:19:57.647Z,83.76
2022-10-23T14:21:08.136Z,83.33
2022-10-23T14:22:43.217Z,83.42
2022-10-23T14:23:46.377Z,83.31
2022-10-23T14:24:49.577Z,83.07
2022-10-23T14:26:24.525Z,83.25
2022-10-23T14:27:27.298Z,83.21
2022-10-23T14:28:30.370Z,83.17
2022-10-23T14:30:14.809Z,83.41
2022-10-23T14:31:17.658Z,83.18
2022-10-23T14:32:20.447Z,83.34
2022-10-23T14:33:56.167Z,83.43
2022-10-23T14:34:59.358Z,83.18
2022-10-23T14:36:02.269Z,83.46
2022-10-23T14:37:59.629Z,83.24
2022-10-23T14:39:02.429Z,83.26
2022-10-23T14:40:05.341Z,83.39
2022-10-23T14:41:40.148Z,83.63
2022-10-23T14:42:43.126Z,83.46
2022-10-23T14:43:46.115Z,83.31
2022-10-23T14:45:21.105Z,83.56
2022-10-23T14:46:23.798Z,83.55
2022-10-23T14:47:26.813Z,83.49
2022-10-23T14:49:07.847Z,83.62
2022-10-23T14:50:11.029Z,83.52
2022-10-23T14:51:14.123Z,83.57
2022-10-23T14:52:48.897Z,83.43
2022-10-23T14:53:54.043Z,83.44
2022-10-23T14:54:59.376Z,83.57
2022-10-23T14:56:33.943Z,83.79
2022-10-23T14:57:37.066Z,83.77
2022-10-23T14:58:40.657Z,83.79
2022-10-23T15:00:17.369Z,83.82
2022-10-23T15:01:20.754Z,83.92
2022-10-23T15:02:31.445Z,83.83
2022-10-23T15:04:06.735Z,83.73
2022-10-23T15:05:09.520Z,83.50
2022-10-23T15:06:16.008Z,83.64
2022-10-23T15:07:53.283Z,83.53
2022-10-23T15:08:56.602Z,83.63
2022-10-23T15:09:59.666Z,83.66
2022-10-23T15:11:35.105Z,83.62
2022-10-23T15:12:38.073Z,83.55
2022-10-23T15:13:41.324Z,83.56
2022-10-23T15:15:16.297Z,83.66
2022-10-23T15:16:19.075Z,83.71
2022-10-23T15:17:22.528Z,83.83
2022-10-23T15:18:57.470Z,83.63
2022-10-23T15:20:05.191Z,83.90
2022-10-23T15:21:08.177Z,83.85
2022-10-23T15:22:43.575Z,83.86
2022-10-23T15:23:46.466Z,83.93
2022-10-23T15:24:49.533Z,84.09
2022-10-23T15:26:30.444Z,84.16
2022-10-23T15:27:33.173Z,84.08
2022-10-23T15:28:36.541Z,84.19
2022-10-23T15:30:11.422Z,84.27
2022-10-23T15:31:14.385Z,84.21
2022-10-23T15:32:17.381Z,84.35
2022-10-23T15:33:52.186Z,84.38
2022-10-23T15:34:55.228Z,84.36
2022-10-23T15:35:58.278Z,84.38
2022-10-23T15:37:33.458Z,84.45
2022-10-23T15:38:36.816Z,84.37
2022-10-23T15:39:39.848Z,84.43
2022-10-23T15:41:19.228Z,84.34
2022-10-23T15:42:22.206Z,84.34
2022-10-23T15:43:26.091Z,84.41
2022-10-23T15:45:01.355Z,84.38
2022-10-23T15:46:09.466Z,84.43
2022-10-23T15:47:12.435Z,84.41
2022-10-23T15:48:47.249Z,84.42
2022-10-23T15:49:50.154Z,84.42
2022-10-23T15:50:53.296Z,84.44
2022-10-23T15:52:28.196Z,84.47
2022-10-23T15:53:31.694Z,84.42
2022-10-23T15:54:38.793Z,84.42
2022-10-23T15:56:13.517Z,84.36
2022-10-23T15:57:16.521Z,84.30
2022-10-23T15:58:19.412Z,84.40
2022-10-23T15:59:54.340Z,84.51